sensor_id;sensor_type;location;lat;lon;timestamp;P1;durP1;ratioP1;P2;durP2;ratioP2
21095;SDS011;10706;49.036;12.112;2024-02-04T00:00:30;7.13;;;2.27;;
21095;SDS011;10706;49.036;12.112;2024-02-04T00:02:56;7.63;;;2.53;;
21095;SDS011;10706;49.036;12.112;2024-02-04T00:05:22;7.90;;;3.10;;
21095;SDS011;10706;49.036;12.112;2024-02-04T00:07:48;7.47;;;2.53;;
21095;SDS011;10706;49.036;12.112;2024-02-04T00:10:14;6.50;;;2.17;;
21095;SDS011;10706;49.036;12.112;2024-02-04T00:12:42;4.33;;;2.23;;
21095;SDS011;10706;49.036;12.112;2024-02-04T00:15:08;8.70;;;2.43;;
21095;SDS011;10706;49.036;12.112;2024-02-04T00:17:34;6.70;;;2.40;;
21095;SDS011;10706;49.036;12.112;2024-02-04T00:20:01;4.83;;;1.93;;
21095;SDS011;10706;49.036;12.112;2024-02-04T00:22:30;5.53;;;2.30;;
21095;SDS011;10706;49.036;12.112;2024-02-04T00:24:58;3.80;;;2.27;;
21095;SDS011;10706;49.036;12.112;2024-02-04T00:27:29;5.53;;;2.60;;
21095;SDS011;10706;49.036;12.112;2024-02-04T00:29:56;4.83;;;2.33;;
21095;SDS011;10706;49.036;12.112;2024-02-04T00:32:23;3.93;;;2.00;;
21095;SDS011;10706;49.036;12.112;2024-02-04T00:34:50;5.30;;;2.40;;
21095;SDS011;10706;49.036;12.112;2024-02-04T00:37:15;4.07;;;2.00;;
21095;SDS011;10706;49.036;12.112;2024-02-04T00:39:41;4.90;;;2.30;;
21095;SDS011;10706;49.036;12.112;2024-02-04T00:42:07;5.90;;;2.30;;
21095;SDS011;10706;49.036;12.112;2024-02-04T00:44:33;4.03;;;2.00;;
21095;SDS011;10706;49.036;12.112;2024-02-04T00:46:59;4.30;;;2.30;;
21095;SDS011;10706;49.036;12.112;2024-02-04T00:49:24;4.63;;;2.30;;
21095;SDS011;10706;49.036;12.112;2024-02-04T00:51:51;3.33;;;2.00;;
21095;SDS011;10706;49.036;12.112;2024-02-04T00:54:17;3.00;;;1.97;;
21095;SDS011;10706;49.036;12.112;2024-02-04T00:56:43;5.07;;;1.97;;
21095;SDS011;10706;49.036;12.112;2024-02-04T00:59:09;4.90;;;2.40;;
21095;SDS011;10706;49.036;12.112;2024-02-04T01:01:35;6.27;;;1.87;;
21095;SDS011;10706;49.036;12.112;2024-02-04T01:04:01;3.47;;;1.97;;
21095;SDS011;10706;49.036;12.112;2024-02-04T01:06:27;3.00;;;1.87;;
21095;SDS011;10706;49.036;12.112;2024-02-04T01:08:54;5.93;;;2.27;;
21095;SDS011;10706;49.036;12.112;2024-02-04T01:11:21;3.47;;;2.03;;
21095;SDS011;10706;49.036;12.112;2024-02-04T01:13:47;3.57;;;1.90;;
21095;SDS011;10706;49.036;12.112;2024-02-04T01:16:13;3.77;;;1.70;;
21095;SDS011;10706;49.036;12.112;2024-02-04T01:18:38;2.30;;;1.50;;
21095;SDS011;10706;49.036;12.112;2024-02-04T01:21:04;1.83;;;1.57;;
21095;SDS011;10706;49.036;12.112;2024-02-04T01:23:30;3.20;;;1.70;;
21095;SDS011;10706;49.036;12.112;2024-02-04T01:25:56;2.10;;;1.60;;
21095;SDS011;10706;49.036;12.112;2024-02-04T01:28:21;2.40;;;1.60;;
21095;SDS011;10706;49.036;12.112;2024-02-04T01:30:47;2.60;;;1.50;;
21095;SDS011;10706;49.036;12.112;2024-02-04T01:33:13;4.10;;;1.63;;
21095;SDS011;10706;49.036;12.112;2024-02-04T01:35:39;3.93;;;1.50;;
21095;SDS011;10706;49.036;12.112;2024-02-04T01:38:04;3.17;;;1.40;;
21095;SDS011;10706;49.036;12.112;2024-02-04T01:40:30;2.67;;;1.67;;
21095;SDS011;10706;49.036;12.112;2024-02-04T01:42:56;2.73;;;1.60;;
21095;SDS011;10706;49.036;12.112;2024-02-04T01:45:22;3.00;;;1.53;;
21095;SDS011;10706;49.036;12.112;2024-02-04T01:47:48;2.73;;;1.70;;
21095;SDS011;10706;49.036;12.112;2024-02-04T01:50:14;2.90;;;1.60;;
21095;SDS011;10706;49.036;12.112;2024-02-04T01:52:42;1.97;;;1.60;;
21095;SDS011;10706;49.036;12.112;2024-02-04T01:55:08;2.10;;;1.40;;
21095;SDS011;10706;49.036;12.112;2024-02-04T01:57:35;2.73;;;1.63;;
21095;SDS011;10706;49.036;12.112;2024-02-04T02:00:01;3.10;;;1.50;;
21095;SDS011;10706;49.036;12.112;2024-02-04T02:02:29;1.40;;;1.30;;
21095;SDS011;10706;49.036;12.112;2024-02-04T02:04:55;3.43;;;1.50;;
21095;SDS011;10706;49.036;12.112;2024-02-04T02:07:22;1.87;;;1.40;;
21095;SDS011;10706;49.036;12.112;2024-02-04T02:09:52;5.63;;;1.40;;
21095;SDS011;10706;49.036;12.112;2024-02-04T02:12:19;3.43;;;1.60;;
21095;SDS011;10706;49.036;12.112;2024-02-04T02:15:01;3.57;;;1.83;;
21095;SDS011;10706;49.036;12.112;2024-02-04T02:17:42;2.87;;;1.73;;
21095;SDS011;10706;49.036;12.112;2024-02-04T02:20:29;5.60;;;1.90;;
21095;SDS011;10706;49.036;12.112;2024-02-04T02:23:07;1.57;;;1.33;;
21095;SDS011;10706;49.036;12.112;2024-02-04T02:25:39;2.73;;;1.60;;
21095;SDS011;10706;49.036;12.112;2024-02-04T02:28:06;5.47;;;1.67;;
21095;SDS011;10706;49.036;12.112;2024-02-04T02:30:32;5.30;;;1.60;;
21095;SDS011;10706;49.036;12.112;2024-02-04T02:32:58;3.17;;;1.50;;
21095;SDS011;10706;49.036;12.112;2024-02-04T02:35:25;2.03;;;1.50;;
21095;SDS011;10706;49.036;12.112;2024-02-04T02:42:57;2.00;;;1.50;;
21095;SDS011;10706;49.036;12.112;2024-02-04T02:45:28;2.10;;;1.50;;
21095;SDS011;10706;49.036;12.112;2024-02-04T02:47:54;2.77;;;1.70;;
21095;SDS011;10706;49.036;12.112;2024-02-04T02:50:20;1.53;;;1.40;;
21095;SDS011;10706;49.036;12.112;2024-02-04T02:52:47;2.17;;;1.60;;
21095;SDS011;10706;49.036;12.112;2024-02-04T02:55:12;2.03;;;1.40;;
21095;SDS011;10706;49.036;12.112;2024-02-04T02:57:38;3.47;;;1.70;;
21095;SDS011;10706;49.036;12.112;2024-02-04T03:00:04;3.73;;;1.70;;
21095;SDS011;10706;49.036;12.112;2024-02-04T03:02:31;2.10;;;1.50;;
21095;SDS011;10706;49.036;12.112;2024-02-04T03:04:57;2.67;;;1.60;;
21095;SDS011;10706;49.036;12.112;2024-02-04T03:07:23;2.30;;;1.60;;
21095;SDS011;10706;49.036;12.112;2024-02-04T03:09:48;1.50;;;1.40;;
21095;SDS011;10706;49.036;12.112;2024-02-04T03:12:14;2.50;;;1.47;;
21095;SDS011;10706;49.036;12.112;2024-02-04T03:14:40;1.77;;;1.30;;
21095;SDS011;10706;49.036;12.112;2024-02-04T03:17:06;2.63;;;1.50;;
21095;SDS011;10706;49.036;12.112;2024-02-04T03:19:31;2.50;;;1.47;;
21095;SDS011;10706;49.036;12.112;2024-02-04T03:21:57;1.70;;;1.50;;
21095;SDS011;10706;49.036;12.112;2024-02-04T03:24:23;2.10;;;1.50;;
21095;SDS011;10706;49.036;12.112;2024-02-04T03:26:48;2.00;;;1.30;;
21095;SDS011;10706;49.036;12.112;2024-02-04T03:29:14;3.40;;;1.40;;
21095;SDS011;10706;49.036;12.112;2024-02-04T03:31:40;2.53;;;1.47;;
21095;SDS011;10706;49.036;12.112;2024-02-04T03:34:06;4.33;;;1.50;;
21095;SDS011;10706;49.036;12.112;2024-02-04T03:36:31;1.60;;;1.30;;
21095;SDS011;10706;49.036;12.112;2024-02-04T03:38:57;2.00;;;1.50;;
21095;SDS011;10706;49.036;12.112;2024-02-04T03:41:23;1.90;;;1.30;;
21095;SDS011;10706;49.036;12.112;2024-02-04T03:43:48;2.40;;;1.50;;
21095;SDS011;10706;49.036;12.112;2024-02-04T03:46:14;1.87;;;1.30;;
21095;SDS011;10706;49.036;12.112;2024-02-04T03:48:41;1.30;;;1.20;;
21095;SDS011;10706;49.036;12.112;2024-02-04T03:51:08;4.60;;;1.80;;
21095;SDS011;10706;49.036;12.112;2024-02-04T03:53:39;2.13;;;1.30;;
21095;SDS011;10706;49.036;12.112;2024-02-04T03:56:05;1.67;;;1.40;;
21095;SDS011;10706;49.036;12.112;2024-02-04T03:58:32;1.47;;;1.37;;
21095;SDS011;10706;49.036;12.112;2024-02-04T04:00:58;1.87;;;1.20;;
21095;SDS011;10706;49.036;12.112;2024-02-04T04:03:24;1.60;;;1.17;;
21095;SDS011;10706;49.036;12.112;2024-02-04T04:05:51;2.13;;;1.20;;
21095;SDS011;10706;49.036;12.112;2024-02-04T04:08:18;1.20;;;1.10;;
21095;SDS011;10706;49.036;12.112;2024-02-04T04:10:45;2.60;;;1.27;;
21095;SDS011;10706;49.036;12.112;2024-02-04T04:13:11;1.87;;;1.30;;
21095;SDS011;10706;49.036;12.112;2024-02-04T04:15:37;1.43;;;1.03;;
21095;SDS011;10706;49.036;12.112;2024-02-04T04:18:04;1.23;;;1.13;;
21095;SDS011;10706;49.036;12.112;2024-02-04T04:20:30;2.23;;;1.30;;
21095;SDS011;10706;49.036;12.112;2024-02-04T04:22:55;1.77;;;1.10;;
21095;SDS011;10706;49.036;12.112;2024-02-04T04:25:21;1.60;;;1.27;;
21095;SDS011;10706;49.036;12.112;2024-02-04T04:27:47;2.23;;;1.37;;
21095;SDS011;10706;49.036;12.112;2024-02-04T04:30:13;1.57;;;1.30;;
21095;SDS011;10706;49.036;12.112;2024-02-04T04:32:39;1.33;;;1.20;;
21095;SDS011;10706;49.036;12.112;2024-02-04T04:35:05;1.37;;;1.20;;
21095;SDS011;10706;49.036;12.112;2024-02-04T04:37:30;1.67;;;1.40;;
21095;SDS011;10706;49.036;12.112;2024-02-04T04:39:56;1.73;;;1.30;;
21095;SDS011;10706;49.036;12.112;2024-02-04T04:42:22;2.27;;;1.20;;
21095;SDS011;10706;49.036;12.112;2024-02-04T04:44:48;1.97;;;1.20;;
21095;SDS011;10706;49.036;12.112;2024-02-04T04:47:14;2.90;;;1.50;;
21095;SDS011;10706;49.036;12.112;2024-02-04T04:49:40;1.93;;;1.43;;
21095;SDS011;10706;49.036;12.112;2024-02-04T04:52:06;1.97;;;1.30;;
21095;SDS011;10706;49.036;12.112;2024-02-04T04:54:32;2.73;;;1.50;;
21095;SDS011;10706;49.036;12.112;2024-02-04T04:56:58;2.63;;;1.50;;
21095;SDS011;10706;49.036;12.112;2024-02-04T04:59:23;2.37;;;1.60;;
21095;SDS011;10706;49.036;12.112;2024-02-04T05:01:49;1.77;;;1.47;;
21095;SDS011;10706;49.036;12.112;2024-02-04T05:04:15;1.73;;;1.57;;
21095;SDS011;10706;49.036;12.112;2024-02-04T05:06:43;2.30;;;1.60;;
21095;SDS011;10706;49.036;12.112;2024-02-04T05:09:09;3.40;;;1.50;;
21095;SDS011;10706;49.036;12.112;2024-02-04T05:11:35;3.87;;;1.57;;
21095;SDS011;10706;49.036;12.112;2024-02-04T05:14:01;3.03;;;1.60;;
21095;SDS011;10706;49.036;12.112;2024-02-04T05:16:26;5.10;;;1.80;;
21095;SDS011;10706;49.036;12.112;2024-02-04T05:18:52;3.67;;;1.90;;
21095;SDS011;10706;49.036;12.112;2024-02-04T05:21:18;2.67;;;1.60;;
21095;SDS011;10706;49.036;12.112;2024-02-04T05:23:44;2.73;;;1.60;;
21095;SDS011;10706;49.036;12.112;2024-02-04T05:26:09;3.37;;;1.73;;
21095;SDS011;10706;49.036;12.112;2024-02-04T05:28:35;4.80;;;1.80;;
21095;SDS011;10706;49.036;12.112;2024-02-04T05:31:01;1.70;;;1.50;;
21095;SDS011;10706;49.036;12.112;2024-02-04T05:33:27;2.53;;;1.80;;
21095;SDS011;10706;49.036;12.112;2024-02-04T05:35:53;3.27;;;1.80;;
21095;SDS011;10706;49.036;12.112;2024-02-04T05:38:20;2.63;;;1.87;;
21095;SDS011;10706;49.036;12.112;2024-02-04T05:40:47;2.40;;;1.60;;
21095;SDS011;10706;49.036;12.112;2024-02-04T05:43:12;1.67;;;1.57;;
21095;SDS011;10706;49.036;12.112;2024-02-04T05:45:38;2.80;;;2.00;;
21095;SDS011;10706;49.036;12.112;2024-02-04T05:48:07;2.90;;;1.70;;
21095;SDS011;10706;49.036;12.112;2024-02-04T05:50:36;4.67;;;1.83;;
21095;SDS011;10706;49.036;12.112;2024-02-04T05:53:02;2.40;;;1.70;;
21095;SDS011;10706;49.036;12.112;2024-02-04T05:55:28;1.80;;;1.60;;
21095;SDS011;10706;49.036;12.112;2024-02-04T05:57:54;2.33;;;1.50;;
21095;SDS011;10706;49.036;12.112;2024-02-04T06:00:20;1.63;;;1.43;;
21095;SDS011;10706;49.036;12.112;2024-02-04T06:02:46;2.33;;;1.60;;
21095;SDS011;10706;49.036;12.112;2024-02-04T06:05:13;5.43;;;1.57;;
21095;SDS011;10706;49.036;12.112;2024-02-04T06:07:39;1.50;;;1.30;;
21095;SDS011;10706;49.036;12.112;2024-02-04T06:10:11;2.33;;;1.50;;
21095;SDS011;10706;49.036;12.112;2024-02-04T06:12:37;4.17;;;1.80;;
21095;SDS011;10706;49.036;12.112;2024-02-04T06:15:05;2.10;;;1.40;;
21095;SDS011;10706;49.036;12.112;2024-02-04T06:17:37;1.87;;;1.20;;
21095;SDS011;10706;49.036;12.112;2024-02-04T06:20:03;2.33;;;1.53;;
21095;SDS011;10706;49.036;12.112;2024-02-04T06:22:30;1.93;;;1.30;;
21095;SDS011;10706;49.036;12.112;2024-02-04T06:24:56;3.73;;;1.53;;
21095;SDS011;10706;49.036;12.112;2024-02-04T06:27:21;2.30;;;1.37;;
21095;SDS011;10706;49.036;12.112;2024-02-04T06:29:47;1.20;;;1.10;;
21095;SDS011;10706;49.036;12.112;2024-02-04T06:32:13;3.73;;;1.50;;
21095;SDS011;10706;49.036;12.112;2024-02-04T06:34:39;2.30;;;1.47;;
21095;SDS011;10706;49.036;12.112;2024-02-04T06:37:04;2.77;;;1.40;;
21095;SDS011;10706;49.036;12.112;2024-02-04T06:39:30;1.30;;;1.20;;
21095;SDS011;10706;49.036;12.112;2024-02-04T06:41:56;1.50;;;1.40;;
21095;SDS011;10706;49.036;12.112;2024-02-04T06:44:21;1.10;;;1.10;;
21095;SDS011;10706;49.036;12.112;2024-02-04T06:46:47;2.90;;;1.30;;
21095;SDS011;10706;49.036;12.112;2024-02-04T06:49:13;1.97;;;1.30;;
21095;SDS011;10706;49.036;12.112;2024-02-04T06:51:43;2.23;;;1.80;;
21095;SDS011;10706;49.036;12.112;2024-02-04T06:54:09;2.40;;;1.60;;
21095;SDS011;10706;49.036;12.112;2024-02-04T06:56:35;2.27;;;1.27;;
21095;SDS011;10706;49.036;12.112;2024-02-04T06:59:02;2.23;;;1.50;;
21095;SDS011;10706;49.036;12.112;2024-02-04T07:01:27;5.20;;;1.20;;
21095;SDS011;10706;49.036;12.112;2024-02-04T07:03:53;1.60;;;1.30;;
21095;SDS011;10706;49.036;12.112;2024-02-04T07:06:19;2.17;;;1.30;;
21095;SDS011;10706;49.036;12.112;2024-02-04T07:08:45;2.00;;;1.40;;
21095;SDS011;10706;49.036;12.112;2024-02-04T07:11:11;2.27;;;1.30;;
21095;SDS011;10706;49.036;12.112;2024-02-04T07:13:36;1.10;;;1.00;;
21095;SDS011;10706;49.036;12.112;2024-02-04T07:16:02;2.40;;;1.30;;
21095;SDS011;10706;49.036;12.112;2024-02-04T07:18:28;1.90;;;1.13;;
21095;SDS011;10706;49.036;12.112;2024-02-04T07:20:54;1.97;;;1.20;;
21095;SDS011;10706;49.036;12.112;2024-02-04T07:23:20;2.93;;;1.60;;
21095;SDS011;10706;49.036;12.112;2024-02-04T07:25:46;1.53;;;1.30;;
21095;SDS011;10706;49.036;12.112;2024-02-04T07:28:12;1.47;;;1.20;;
21095;SDS011;10706;49.036;12.112;2024-02-04T07:30:38;1.60;;;1.30;;
21095;SDS011;10706;49.036;12.112;2024-02-04T07:33:03;3.23;;;1.57;;
21095;SDS011;10706;49.036;12.112;2024-02-04T07:35:29;2.57;;;1.37;;
21095;SDS011;10706;49.036;12.112;2024-02-04T07:37:55;3.50;;;1.30;;
21095;SDS011;10706;49.036;12.112;2024-02-04T07:40:21;1.40;;;1.20;;
21095;SDS011;10706;49.036;12.112;2024-02-04T07:42:46;2.17;;;1.77;;
21095;SDS011;10706;49.036;12.112;2024-02-04T07:45:12;3.10;;;1.30;;
21095;SDS011;10706;49.036;12.112;2024-02-04T07:47:38;1.30;;;1.20;;
21095;SDS011;10706;49.036;12.112;2024-02-04T07:50:04;1.43;;;1.10;;
21095;SDS011;10706;49.036;12.112;2024-02-04T07:52:30;2.37;;;1.37;;
21095;SDS011;10706;49.036;12.112;2024-02-04T07:54:56;1.40;;;1.20;;
21095;SDS011;10706;49.036;12.112;2024-02-04T07:57:22;1.93;;;1.40;;
21095;SDS011;10706;49.036;12.112;2024-02-04T07:59:47;1.57;;;1.20;;
21095;SDS011;10706;49.036;12.112;2024-02-04T08:02:13;3.07;;;1.13;;
21095;SDS011;10706;49.036;12.112;2024-02-04T08:04:42;2.20;;;1.30;;
21095;SDS011;10706;49.036;12.112;2024-02-04T08:07:07;1.50;;;1.20;;
21095;SDS011;10706;49.036;12.112;2024-02-04T08:09:33;3.73;;;1.40;;
21095;SDS011;10706;49.036;12.112;2024-02-04T08:11:59;7.70;;;2.23;;
21095;SDS011;10706;49.036;12.112;2024-02-04T08:14:25;6.20;;;1.90;;
21095;SDS011;10706;49.036;12.112;2024-02-04T08:16:51;1.30;;;1.20;;
21095;SDS011;10706;49.036;12.112;2024-02-04T08:19:16;2.87;;;1.60;;
21095;SDS011;10706;49.036;12.112;2024-02-04T08:21:42;8.57;;;1.70;;
21095;SDS011;10706;49.036;12.112;2024-02-04T08:24:08;3.37;;;1.50;;
21095;SDS011;10706;49.036;12.112;2024-02-04T08:26:34;1.90;;;1.50;;
21095;SDS011;10706;49.036;12.112;2024-02-04T08:29:00;3.70;;;1.70;;
21095;SDS011;10706;49.036;12.112;2024-02-04T08:31:25;3.33;;;1.40;;
21095;SDS011;10706;49.036;12.112;2024-02-04T08:33:51;1.87;;;1.30;;
21095;SDS011;10706;49.036;12.112;2024-02-04T08:36:18;2.03;;;1.20;;
21095;SDS011;10706;49.036;12.112;2024-02-04T08:38:44;1.47;;;1.27;;
21095;SDS011;10706;49.036;12.112;2024-02-04T08:41:09;1.27;;;1.17;;
21095;SDS011;10706;49.036;12.112;2024-02-04T08:43:35;2.37;;;1.30;;
21095;SDS011;10706;49.036;12.112;2024-02-04T08:46:01;1.53;;;1.33;;
21095;SDS011;10706;49.036;12.112;2024-02-04T08:48:30;1.87;;;1.40;;
21095;SDS011;10706;49.036;12.112;2024-02-04T08:50:56;3.17;;;1.70;;
21095;SDS011;10706;49.036;12.112;2024-02-04T08:53:22;1.23;;;1.10;;
21095;SDS011;10706;49.036;12.112;2024-02-04T08:55:49;1.63;;;1.30;;
21095;SDS011;10706;49.036;12.112;2024-02-04T08:58:15;1.33;;;1.20;;
21095;SDS011;10706;49.036;12.112;2024-02-04T09:00:41;1.53;;;1.30;;
21095;SDS011;10706;49.036;12.112;2024-02-04T09:03:07;1.10;;;1.00;;
21095;SDS011;10706;49.036;12.112;2024-02-04T09:05:32;2.67;;;1.00;;
21095;SDS011;10706;49.036;12.112;2024-02-04T09:07:59;2.43;;;1.20;;
21095;SDS011;10706;49.036;12.112;2024-02-04T09:10:26;1.30;;;1.10;;
21095;SDS011;10706;49.036;12.112;2024-02-04T09:12:52;1.17;;;1.07;;
21095;SDS011;10706;49.036;12.112;2024-02-04T09:15:21;1.67;;;1.50;;
21095;SDS011;10706;49.036;12.112;2024-02-04T09:17:48;1.40;;;1.10;;
21095;SDS011;10706;49.036;12.112;2024-02-04T09:20:14;1.80;;;1.20;;
21095;SDS011;10706;49.036;12.112;2024-02-04T09:22:40;1.70;;;1.30;;
21095;SDS011;10706;49.036;12.112;2024-02-04T09:25:07;2.33;;;1.00;;
21095;SDS011;10706;49.036;12.112;2024-02-04T09:27:33;1.87;;;1.30;;
21095;SDS011;10706;49.036;12.112;2024-02-04T09:30:02;1.67;;;1.07;;
21095;SDS011;10706;49.036;12.112;2024-02-04T09:32:28;1.70;;;1.13;;
21095;SDS011;10706;49.036;12.112;2024-02-04T09:34:55;2.40;;;1.37;;
21095;SDS011;10706;49.036;12.112;2024-02-04T09:37:24;3.57;;;1.40;;
21095;SDS011;10706;49.036;12.112;2024-02-04T09:39:50;3.83;;;1.33;;
21095;SDS011;10706;49.036;12.112;2024-02-04T09:42:19;1.57;;;1.20;;
21095;SDS011;10706;49.036;12.112;2024-02-04T09:44:49;1.10;;;1.00;;
21095;SDS011;10706;49.036;12.112;2024-02-04T09:47:15;2.17;;;1.27;;
21095;SDS011;10706;49.036;12.112;2024-02-04T09:49:42;2.93;;;1.30;;
21095;SDS011;10706;49.036;12.112;2024-02-04T09:52:09;0.90;;;0.90;;
21095;SDS011;10706;49.036;12.112;2024-02-04T09:54:41;1.53;;;1.10;;
21095;SDS011;10706;49.036;12.112;2024-02-04T09:57:13;1.13;;;1.03;;
21095;SDS011;10706;49.036;12.112;2024-02-04T09:59:43;1.00;;;0.90;;
21095;SDS011;10706;49.036;12.112;2024-02-04T10:02:09;1.00;;;1.00;;
21095;SDS011;10706;49.036;12.112;2024-02-04T10:04:35;1.07;;;0.90;;
21095;SDS011;10706;49.036;12.112;2024-02-04T10:07:01;0.90;;;0.90;;
21095;SDS011;10706;49.036;12.112;2024-02-04T10:09:27;0.90;;;0.90;;
21095;SDS011;10706;49.036;12.112;2024-02-04T10:11:55;1.10;;;1.00;;
21095;SDS011;10706;49.036;12.112;2024-02-04T10:14:21;2.33;;;1.00;;
21095;SDS011;10706;49.036;12.112;2024-02-04T10:16:47;2.10;;;1.30;;
21095;SDS011;10706;49.036;12.112;2024-02-04T10:19:13;0.90;;;0.90;;
21095;SDS011;10706;49.036;12.112;2024-02-04T10:21:39;1.60;;;1.10;;
21095;SDS011;10706;49.036;12.112;2024-02-04T10:24:06;0.83;;;0.80;;
21095;SDS011;10706;49.036;12.112;2024-02-04T10:26:33;1.20;;;1.10;;
21095;SDS011;10706;49.036;12.112;2024-02-04T10:29:02;2.80;;;1.17;;
21095;SDS011;10706;49.036;12.112;2024-02-04T10:31:29;1.47;;;1.00;;
21095;SDS011;10706;49.036;12.112;2024-02-04T10:33:55;1.73;;;1.00;;
21095;SDS011;10706;49.036;12.112;2024-02-04T10:36:22;1.07;;;1.00;;
21095;SDS011;10706;49.036;12.112;2024-02-04T10:38:48;1.80;;;1.03;;
21095;SDS011;10706;49.036;12.112;2024-02-04T10:41:14;1.30;;;1.20;;
21095;SDS011;10706;49.036;12.112;2024-02-04T10:43:42;2.60;;;1.00;;
21095;SDS011;10706;49.036;12.112;2024-02-04T10:46:11;1.00;;;1.00;;
21095;SDS011;10706;49.036;12.112;2024-02-04T10:48:43;1.40;;;1.30;;
21095;SDS011;10706;49.036;12.112;2024-02-04T10:51:14;2.00;;;1.37;;
21095;SDS011;10706;49.036;12.112;2024-02-04T10:53:43;1.10;;;1.00;;
21095;SDS011;10706;49.036;12.112;2024-02-04T10:56:21;1.10;;;0.90;;
21095;SDS011;10706;49.036;12.112;2024-02-04T10:58:54;0.80;;;0.80;;
21095;SDS011;10706;49.036;12.112;2024-02-04T11:01:23;1.77;;;0.93;;
21095;SDS011;10706;49.036;12.112;2024-02-04T11:03:49;0.80;;;0.80;;
21095;SDS011;10706;49.036;12.112;2024-02-04T11:06:18;0.87;;;0.87;;
21095;SDS011;10706;49.036;12.112;2024-02-04T11:08:47;0.93;;;0.90;;
21095;SDS011;10706;49.036;12.112;2024-02-04T11:11:12;1.20;;;0.87;;
21095;SDS011;10706;49.036;12.112;2024-02-04T11:13:38;1.00;;;1.00;;
21095;SDS011;10706;49.036;12.112;2024-02-04T11:16:15;1.10;;;0.90;;
21095;SDS011;10706;49.036;12.112;2024-02-04T11:22:09;1.10;;;1.00;;
21095;SDS011;10706;49.036;12.112;2024-02-04T11:25:19;2.27;;;1.20;;
21095;SDS011;10706;49.036;12.112;2024-02-04T11:28:08;1.60;;;1.10;;
21095;SDS011;10706;49.036;12.112;2024-02-04T11:30:38;4.47;;;0.97;;
21095;SDS011;10706;49.036;12.112;2024-02-04T11:33:04;1.93;;;1.10;;
21095;SDS011;10706;49.036;12.112;2024-02-04T11:35:32;1.20;;;1.10;;
21095;SDS011;10706;49.036;12.112;2024-02-04T11:37:58;1.67;;;1.30;;
21095;SDS011;10706;49.036;12.112;2024-02-04T11:40:29;1.33;;;1.10;;
21095;SDS011;10706;49.036;12.112;2024-02-04T11:43:06;1.00;;;0.90;;
21095;SDS011;10706;49.036;12.112;2024-02-04T11:45:41;1.80;;;1.17;;
21095;SDS011;10706;49.036;12.112;2024-02-04T11:48:09;0.80;;;0.80;;
21095;SDS011;10706;49.036;12.112;2024-02-04T11:50:36;1.60;;;1.00;;
21095;SDS011;10706;49.036;12.112;2024-02-04T11:53:06;1.20;;;1.10;;
21095;SDS011;10706;49.036;12.112;2024-02-04T11:55:35;1.00;;;1.00;;
21095;SDS011;10706;49.036;12.112;2024-02-04T11:58:01;1.13;;;1.00;;
21095;SDS011;10706;49.036;12.112;2024-02-04T12:00:31;3.77;;;1.30;;
21095;SDS011;10706;49.036;12.112;2024-02-04T12:03:02;1.97;;;1.03;;
21095;SDS011;10706;49.036;12.112;2024-02-04T12:05:34;0.97;;;0.90;;
21095;SDS011;10706;49.036;12.112;2024-02-04T12:08:01;0.80;;;0.80;;
21095;SDS011;10706;49.036;12.112;2024-02-04T12:10:30;1.00;;;1.00;;
21095;SDS011;10706;49.036;12.112;2024-02-04T12:13:00;0.80;;;0.80;;
21095;SDS011;10706;49.036;12.112;2024-02-04T12:15:29;0.80;;;0.80;;
21095;SDS011;10706;49.036;12.112;2024-02-04T12:18:07;1.43;;;0.90;;
21095;SDS011;10706;49.036;12.112;2024-02-04T12:20:33;0.80;;;0.80;;
21095;SDS011;10706;49.036;12.112;2024-02-04T12:23:05;0.90;;;0.90;;
21095;SDS011;10706;49.036;12.112;2024-02-04T12:25:32;1.27;;;0.90;;
21095;SDS011;10706;49.036;12.112;2024-02-04T12:27:59;0.87;;;0.80;;
21095;SDS011;10706;49.036;12.112;2024-02-04T12:30:28;0.80;;;0.80;;
21095;SDS011;10706;49.036;12.112;2024-02-04T12:32:55;0.93;;;0.87;;
21095;SDS011;10706;49.036;12.112;2024-02-04T12:35:29;0.90;;;0.90;;
21095;SDS011;10706;49.036;12.112;2024-02-04T12:37:56;1.73;;;1.07;;
21095;SDS011;10706;49.036;12.112;2024-02-04T12:40:24;0.93;;;0.93;;
21095;SDS011;10706;49.036;12.112;2024-02-04T12:42:57;2.37;;;1.20;;
21095;SDS011;10706;49.036;12.112;2024-02-04T12:45:26;2.10;;;1.53;;
21095;SDS011;10706;49.036;12.112;2024-02-04T12:47:54;2.40;;;1.20;;
21095;SDS011;10706;49.036;12.112;2024-02-04T12:50:22;3.97;;;1.20;;
21095;SDS011;10706;49.036;12.112;2024-02-04T12:52:50;2.90;;;1.60;;
21095;SDS011;10706;49.036;12.112;2024-02-04T12:55:32;1.90;;;1.40;;
21095;SDS011;10706;49.036;12.112;2024-02-04T12:58:09;3.00;;;1.27;;
21095;SDS011;10706;49.036;12.112;2024-02-04T13:00:37;1.57;;;1.30;;
21095;SDS011;10706;49.036;12.112;2024-02-04T13:03:07;2.73;;;1.50;;
21095;SDS011;10706;49.036;12.112;2024-02-04T13:05:34;1.87;;;1.30;;
21095;SDS011;10706;49.036;12.112;2024-02-04T13:08:01;3.27;;;1.47;;
21095;SDS011;10706;49.036;12.112;2024-02-04T13:10:31;2.93;;;1.43;;
21095;SDS011;10706;49.036;12.112;2024-02-04T13:12:59;1.53;;;1.17;;
21095;SDS011;10706;49.036;12.112;2024-02-04T13:15:27;4.43;;;1.40;;
21095;SDS011;10706;49.036;12.112;2024-02-04T13:17:54;1.33;;;1.23;;
21095;SDS011;10706;49.036;12.112;2024-02-04T13:20:21;1.60;;;1.30;;
21095;SDS011;10706;49.036;12.112;2024-02-04T13:22:47;1.87;;;1.40;;
21095;SDS011;10706;49.036;12.112;2024-02-04T13:25:13;1.33;;;1.20;;
21095;SDS011;10706;49.036;12.112;2024-02-04T13:27:39;1.73;;;1.20;;
21095;SDS011;10706;49.036;12.112;2024-02-04T13:30:06;3.17;;;1.40;;
21095;SDS011;10706;49.036;12.112;2024-02-04T13:32:37;3.10;;;1.63;;
21095;SDS011;10706;49.036;12.112;2024-02-04T13:35:06;1.63;;;1.40;;
21095;SDS011;10706;49.036;12.112;2024-02-04T13:37:37;2.50;;;1.47;;
21095;SDS011;10706;49.036;12.112;2024-02-04T13:40:05;2.27;;;1.53;;
21095;SDS011;10706;49.036;12.112;2024-02-04T13:42:35;2.73;;;1.57;;
21095;SDS011;10706;49.036;12.112;2024-02-04T13:45:01;3.57;;;1.40;;
21095;SDS011;10706;49.036;12.112;2024-02-04T13:47:28;2.17;;;1.60;;
21095;SDS011;10706;49.036;12.112;2024-02-04T13:49:54;3.13;;;1.47;;
21095;SDS011;10706;49.036;12.112;2024-02-04T13:52:21;1.53;;;1.23;;
21095;SDS011;10706;49.036;12.112;2024-02-04T13:54:46;1.00;;;1.00;;
21095;SDS011;10706;49.036;12.112;2024-02-04T13:57:13;0.97;;;0.93;;
21095;SDS011;10706;49.036;12.112;2024-02-04T13:59:41;2.27;;;1.20;;
21095;SDS011;10706;49.036;12.112;2024-02-04T14:02:10;0.90;;;0.90;;
21095;SDS011;10706;49.036;12.112;2024-02-04T14:04:51;0.80;;;0.80;;
21095;SDS011;10706;49.036;12.112;2024-02-04T14:07:26;1.33;;;1.10;;
21095;SDS011;10706;49.036;12.112;2024-02-04T14:09:53;0.80;;;0.80;;
21095;SDS011;10706;49.036;12.112;2024-02-04T14:12:30;0.90;;;0.90;;
21095;SDS011;10706;49.036;12.112;2024-02-04T14:14:57;0.90;;;0.90;;
21095;SDS011;10706;49.036;12.112;2024-02-04T14:17:32;0.90;;;0.90;;
21095;SDS011;10706;49.036;12.112;2024-02-04T14:23:33;0.90;;;0.90;;
21095;SDS011;10706;49.036;12.112;2024-02-04T14:35:46;1.10;;;0.90;;
21095;SDS011;10706;49.036;12.112;2024-02-04T14:38:12;0.97;;;0.90;;
21095;SDS011;10706;49.036;12.112;2024-02-04T14:40:46;1.50;;;1.00;;
21095;SDS011;10706;49.036;12.112;2024-02-04T14:54:22;2.97;;;1.03;;
21095;SDS011;10706;49.036;12.112;2024-02-04T15:04:05;1.33;;;0.97;;
21095;SDS011;10706;49.036;12.112;2024-02-04T15:06:44;1.30;;;1.20;;
21095;SDS011;10706;49.036;12.112;2024-02-04T15:09:10;2.83;;;1.20;;
21095;SDS011;10706;49.036;12.112;2024-02-04T15:11:37;1.33;;;1.17;;
21095;SDS011;10706;49.036;12.112;2024-02-04T15:14:10;2.13;;;1.00;;